Time;durP1;ratioP1;P1;durP2;ratioP2;P2;SDS_P1;SDS_P2;PMS_P1;PMS_P2;Temp;Humidity;BMP_temperature;BMP_pressure;BME280_temperature;BME280_humidity;BME280_pressure;Samples;Min_cycle;Max_cycle;Signal;HPM_P1;HPM_P2
2023/11/16 00:00:32;;;;;;;8.50;3.93;;;7.80;99.90;;;;;;5140454;27;20454;-60
2023/11/16 00:03:01;;;;;;;14.40;4.40;;;7.80;99.90;;;;;;5140478;27;20542;-63
2023/11/16 00:05:28;;;;;;;10.37;4.30;;;7.80;99.90;;;;;;5140264;27;20767;-60
2023/11/16 00:07:57;;;;;;;14.77;4.63;;;7.80;99.90;;;;;;5140333;27;20479;-62
2023/11/16 00:10:25;;;;;;;13.00;4.73;;;7.80;99.90;;;;;;5139161;27;21008;-61
2023/11/16 00:12:55;;;;;;;10.70;4.40;;;7.80;99.90;;;;;;5139981;27;20498;-60
2023/11/16 00:15:23;;;;;;;11.10;4.37;;;7.80;99.90;;;;;;5140141;27;20546;-62
2023/11/16 00:17:51;;;;;;;11.50;4.50;;;7.80;99.90;;;;;;5139897;27;20527;-61
2023/11/16 00:20:18;;;;;;;19.00;4.60;;;7.80;99.90;;;;;;5139954;27;20475;-60
2023/11/16 00:22:45;;;;;;;11.83;3.90;;;7.80;99.90;;;;;;5139112;27;20994;-61
2023/11/16 00:25:16;;;;;;;11.40;4.97;;;7.80;99.90;;;;;;5139393;27;20459;-60
2023/11/16 00:27:45;;;;;;;12.70;4.47;;;7.80;99.90;;;;;;5140132;27;20732;-60
2023/11/16 00:30:14;;;;;;;9.70;3.80;;;7.80;99.90;;;;;;5138764;27;20577;-59
2023/11/16 00:32:42;;;;;;;15.47;4.50;;;7.80;99.90;;;;;;5139608;27;20469;-60
2023/11/16 00:35:10;;;;;;;14.40;5.73;;;7.90;99.90;;;;;;5139403;27;20561;-60
2023/11/16 00:37:38;;;;;;;11.40;4.40;;;7.80;99.90;;;;;;5139365;27;20558;-60
2023/11/16 00:40:07;;;;;;;21.03;4.17;;;7.80;99.90;;;;;;5139615;27;20479;-62
2023/11/16 00:42:36;;;;;;;12.07;3.97;;;7.80;99.90;;;;;;5139455;27;20458;-61
2023/11/16 00:45:06;;;;;;;11.53;4.73;;;7.80;99.90;;;;;;5139686;27;20864;-62
2023/11/16 00:47:33;;;;;;;15.23;4.27;;;7.70;99.90;;;;;;5139173;27;20488;-61
2023/11/16 00:50:02;;;;;;;8.73;3.60;;;7.70;99.90;;;;;;5139084;27;20486;-61
2023/11/16 00:52:29;;;;;;;9.50;4.43;;;7.80;99.90;;;;;;5138933;27;20465;-60
2023/11/16 00:54:56;;;;;;;7.50;4.00;;;7.80;99.90;;;;;;5138640;27;20545;-61
2023/11/16 00:57:23;;;;;;;8.63;4.20;;;7.70;99.90;;;;;;5138972;27;20894;-61
2023/11/16 00:59:50;;;;;;;14.30;4.10;;;7.70;99.90;;;;;;5138828;27;20562;-61
2023/11/16 01:02:18;;;;;;;8.53;3.67;;;7.80;99.90;;;;;;5139048;27;20461;-61
2023/11/16 01:04:46;;;;;;;9.67;4.10;;;7.70;99.90;;;;;;5139055;27;20446;-61
2023/11/16 01:07:14;;;;;;;13.40;4.73;;;7.70;99.90;;;;;;5138662;27;20462;-61
2023/11/16 01:09:42;;;;;;;10.63;4.00;;;7.70;99.90;;;;;;5138896;27;20950;-62
2023/11/16 01:12:15;;;;;;;10.13;4.30;;;7.70;99.90;;;;;;5139402;27;20454;-61
2023/11/16 01:14:42;;;;;;;11.10;4.00;;;7.70;99.90;;;;;;5139247;27;20930;-61
2023/11/16 01:17:18;;;;;;;10.43;4.13;;;7.70;99.90;;;;;;5138465;27;20465;-61
2023/11/16 01:19:46;;;;;;;6.83;3.93;;;7.70;99.90;;;;;;5139217;27;20503;-60
2023/11/16 01:22:21;;;;;;;12.00;4.53;;;7.70;99.90;;;;;;5138406;27;20458;-63
2023/11/16 01:24:48;;;;;;;12.67;4.40;;;7.70;99.90;;;;;;5138454;27;20505;-61
2023/11/16 01:27:15;;;;;;;10.47;4.03;;;7.60;99.90;;;;;;5138459;27;20439;-62
2023/11/16 01:29:46;;;;;;;14.43;5.17;;;7.70;99.90;;;;;;5137860;27;20482;-59
2023/11/16 01:32:14;;;;;;;13.87;4.30;;;7.70;99.90;;;;;;5138819;27;20497;-61
2023/11/16 01:34:41;;;;;;;13.80;4.17;;;7.70;99.90;;;;;;5138769;27;20875;-62
2023/11/16 01:37:10;;;;;;;13.47;4.43;;;7.70;99.90;;;;;;5138894;27;20459;-61
2023/11/16 01:39:39;;;;;;;11.20;4.90;;;7.60;99.90;;;;;;5138055;27;20479;-65
2023/11/16 01:42:09;;;;;;;8.77;4.10;;;7.60;99.90;;;;;;5138878;27;20504;-63
2023/11/16 01:44:36;;;;;;;10.93;5.07;;;7.70;99.90;;;;;;5138604;27;20958;-61
2023/11/16 01:47:08;;;;;;;12.80;4.90;;;7.60;99.90;;;;;;5138334;27;20549;-62
2023/11/16 01:49:36;;;;;;;12.17;4.27;;;7.70;99.90;;;;;;5137364;27;20489;-62
2023/11/16 01:52:05;;;;;;;10.73;4.57;;;7.60;99.90;;;;;;5138365;27;20532;-61
2023/11/16 01:54:35;;;;;;;9.63;4.40;;;7.60;99.90;;;;;;5138480;28;20818;-62
2023/11/16 01:57:04;;;;;;;11.67;4.60;;;7.70;99.90;;;;;;5137933;28;20459;-61
2023/11/16 01:59:33;;;;;;;11.23;3.93;;;7.60;99.90;;;;;;5138427;28;20453;-62
2023/11/16 02:02:04;;;;;;;9.70;4.60;;;7.60;99.90;;;;;;5138031;28;20454;-61
2023/11/16 02:04:34;;;;;;;8.97;3.97;;;7.60;99.90;;;;;;5138187;28;20458;-61
2023/11/16 02:07:03;;;;;;;9.87;4.20;;;7.60;99.90;;;;;;5137883;28;20466;-61
2023/11/16 02:09:30;;;;;;;11.43;3.93;;;7.60;99.90;;;;;;5137062;28;20526;-61
2023/11/16 02:11:57;;;;;;;10.37;3.90;;;7.60;99.90;;;;;;5138091;28;20460;-62
2023/11/16 02:14:26;;;;;;;10.07;3.67;;;7.60;99.90;;;;;;5138070;28;20429;-62
2023/11/16 02:16:56;;;;;;;9.93;3.97;;;7.60;99.90;;;;;;5138158;28;20703;-61
2023/11/16 02:19:30;;;;;;;14.70;4.70;;;7.60;99.90;;;;;;5138312;28;20433;-62
2023/11/16 02:21:58;;;;;;;11.00;4.23;;;7.60;99.90;;;;;;5138207;28;20454;-62
2023/11/16 02:24:27;;;;;;;12.87;4.23;;;7.60;99.90;;;;;;5138423;28;20497;-62
2023/11/16 02:26:54;;;;;;;10.33;4.60;;;7.60;99.90;;;;;;5137951;28;20458;-62
2023/11/16 02:29:22;;;;;;;9.17;3.70;;;7.60;99.90;;;;;;5137856;28;20849;-61
2023/11/16 02:31:53;;;;;;;15.60;5.10;;;7.60;99.90;;;;;;5137754;27;20578;-62
2023/11/16 02:34:20;;;;;;;9.27;4.83;;;7.60;99.90;;;;;;5141252;27;20493;-62
2023/11/16 02:36:47;;;;;;;9.97;3.83;;;7.60;99.90;;;;;;5141585;27;20455;-61
2023/11/16 02:39:15;;;;;;;13.00;4.50;;;7.60;99.90;;;;;;5141252;27;20478;-62
2023/11/16 02:41:44;;;;;;;8.73;3.50;;;7.60;99.90;;;;;;5141594;27;20556;-62
2023/11/16 02:44:14;;;;;;;11.23;4.30;;;7.60;99.90;;;;;;5141759;27;20807;-62
2023/11/16 02:46:42;;;;;;;10.10;4.40;;;7.60;99.90;;;;;;5141773;27;20462;-62
2023/11/16 02:49:09;;;;;;;10.47;4.10;;;7.60;99.90;;;;;;5141337;27;20497;-62
2023/11/16 02:51:36;;;;;;;12.80;5.40;;;7.60;99.90;;;;;;5141077;27;20547;-63
2023/11/16 02:54:06;;;;;;;10.33;4.40;;;7.60;99.90;;;;;;5141725;27;20450;-62
2023/11/16 02:56:33;;;;;;;11.17;4.40;;;7.60;99.90;;;;;;5141705;27;20557;-63
2023/11/16 02:59:03;;;;;;;7.87;4.40;;;7.60;99.90;;;;;;5141017;27;20465;-62
2023/11/16 03:01:32;;;;;;;13.87;4.13;;;7.60;99.90;;;;;;5141265;27;20820;-62
2023/11/16 03:04:00;;;;;;;12.43;5.43;;;7.60;99.90;;;;;;5141620;27;20756;-62
2023/11/16 03:06:27;;;;;;;9.27;4.30;;;7.60;99.90;;;;;;5141498;27;20485;-63
2023/11/16 03:08:54;;;;;;;12.20;3.97;;;7.60;99.90;;;;;;5140842;27;20472;-62
2023/11/16 03:11:22;;;;;;;24.83;5.70;;;7.60;99.90;;;;;;5141134;27;20526;-62
2023/11/16 03:13:49;;;;;;;8.40;3.40;;;7.60;99.90;;;;;;5140994;27;20466;-62
2023/11/16 03:16:21;;;;;;;15.13;4.43;;;7.60;99.90;;;;;;5141316;27;20481;-63
2023/11/16 03:18:48;;;;;;;13.13;4.20;;;7.60;99.90;;;;;;5141057;27;20807;-64
2023/11/16 03:21:15;;;;;;;12.30;5.07;;;7.60;99.90;;;;;;5140487;27;20502;-63
2023/11/16 03:23:43;;;;;;;11.43;4.00;;;7.60;99.90;;;;;;5141171;27;20454;-62
2023/11/16 03:26:10;;;;;;;9.63;4.10;;;7.60;99.90;;;;;;5140779;27;20490;-62
2023/11/16 03:28:37;;;;;;;8.53;4.80;;;7.60;99.90;;;;;;5140829;27;20754;-62
2023/11/16 03:31:06;;;;;;;16.70;4.47;;;7.60;99.90;;;;;;5139889;27;20601;-62
2023/11/16 03:33:34;;;;;;;11.00;4.77;;;7.60;99.90;;;;;;5140692;27;20558;-62
2023/11/16 03:36:02;;;;;;;13.60;4.90;;;7.60;99.90;;;;;;5140762;27;20970;-62
2023/11/16 03:38:30;;;;;;;15.13;4.70;;;7.60;99.90;;;;;;5140074;27;20856;-62
2023/11/16 03:40:58;;;;;;;9.87;4.50;;;7.60;99.90;;;;;;5140464;27;20759;-62
2023/11/16 03:43:25;;;;;;;12.57;7.27;;;7.60;99.90;;;;;;5140412;27;20490;-67
2023/11/16 03:45:52;;;;;;;13.27;4.93;;;7.60;99.90;;;;;;5140677;27;20557;-62
2023/11/16 03:48:22;;;;;;;7.43;5.03;;;7.50;99.90;;;;;;5140878;27;20458;-62
2023/11/16 03:50:51;;;;;;;9.93;5.10;;;7.50;99.90;;;;;;5139926;27;20530;-62
2023/11/16 03:53:18;;;;;;;12.90;5.30;;;7.50;99.90;;;;;;5140106;27;20550;-63
2023/11/16 03:55:46;;;;;;;13.90;5.20;;;7.50;99.90;;;;;;5140285;27;20523;-62
2023/11/16 03:58:13;;;;;;;13.17;4.67;;;7.50;99.90;;;;;;5140692;27;20939;-62
2023/11/16 04:00:40;;;;;;;14.73;5.00;;;7.40;99.90;;;;;;5140556;27;20554;-62
2023/11/16 04:03:07;;;;;;;14.80;5.20;;;7.50;99.90;;;;;;5139843;27;20549;-62
2023/11/16 04:05:35;;;;;;;13.13;6.07;;;7.50;99.90;;;;;;5140210;27;20875;-63
2023/11/16 04:08:05;;;;;;;16.67;4.70;;;7.50;99.90;;;;;;5139750;27;20909;-62
2023/11/16 04:10:32;;;;;;;13.30;4.80;;;7.50;99.90;;;;;;5140269;27;20787;-62
2023/11/16 04:12:59;;;;;;;10.73;4.83;;;7.50;99.90;;;;;;5139836;27;20947;-62
2023/11/16 04:15:27;;;;;;;15.40;5.67;;;7.50;99.90;;;;;;5140325;27;20939;-62
2023/11/16 04:17:54;;;;;;;12.47;4.33;;;7.50;99.90;;;;;;5139777;27;20460;-63
2023/11/16 04:20:23;;;;;;;15.97;5.10;;;7.50;99.90;;;;;;5139830;27;20592;-63
2023/11/16 04:22:50;;;;;;;9.07;3.90;;;7.50;99.90;;;;;;5139262;27;20454;-63
2023/11/16 04:25:27;;;;;;;20.47;5.87;;;7.60;99.90;;;;;;5139739;27;20564;-62
2023/11/16 04:27:59;;;;;;;15.23;5.53;;;7.50;99.90;;;;;;5140018;27;20458;-62
2023/11/16 04:30:28;;;;;;;17.47;4.90;;;7.60;99.90;;;;;;5138790;27;20508;-63
2023/11/16 04:32:55;;;;;;;15.67;4.63;;;7.50;99.90;;;;;;5139384;27;20485;-62
2023/11/16 04:35:22;;;;;;;14.23;5.07;;;7.60;99.90;;;;;;5139541;27;20458;-62
2023/11/16 04:37:50;;;;;;;9.80;4.60;;;7.50;99.90;;;;;;5139447;27;20491;-62
2023/11/16 04:40:19;;;;;;;10.43;4.80;;;7.50;99.90;;;;;;5139629;27;20721;-63
2023/11/16 04:42:48;;;;;;;16.27;4.80;;;7.50;99.90;;;;;;5139331;27;20511;-63
2023/11/16 04:45:16;;;;;;;13.30;4.90;;;7.50;99.90;;;;;;5139689;27;20516;-63
2023/11/16 04:47:45;;;;;;;12.33;5.30;;;7.50;99.90;;;;;;5139515;27;20450;-62
2023/11/16 04:50:16;;;;;;;8.37;4.50;;;7.50;99.90;;;;;;5139339;27;20493;-62
2023/11/16 04:52:43;;;;;;;11.80;5.40;;;7.50;1.00;;;;;;5139321;27;20455;-62
2023/11/16 04:55:11;;;;;;;12.20;5.23;;;7.50;1.00;;;;;;5138651;27;20461;-62
2023/11/16 04:57:39;;;;;;;11.90;5.90;;;7.50;1.00;;;;;;5138762;27;20459;-63
2023/11/16 05:00:10;;;;;;;10.50;5.30;;;7.50;1.00;;;;;;5137707;27;20499;-61
2023/11/16 05:02:37;;;;;;;13.80;6.30;;;7.50;1.00;;;;;;5137839;27;20560;-63
2023/11/16 05:05:06;;;;;;;15.63;5.30;;;7.50;1.00;;;;;;5137963;27;20545;-62
2023/11/16 05:07:33;;;;;;;12.07;6.37;;;7.50;1.00;;;;;;5139244;27;20864;-62
2023/11/16 05:10:01;;;;;;;11.57;5.00;;;7.50;1.00;;;;;;5139045;27;20498;-62
2023/11/16 05:12:29;;;;;;;17.13;6.30;;;7.50;1.00;;;;;;5139136;27;20491;-62
2023/11/16 05:14:58;;;;;;;9.17;5.80;;;7.40;1.00;;;;;;5138373;27;20455;-62
2023/11/16 05:17:25;;;;;;;9.73;4.63;;;7.40;1.00;;;;;;5138443;27;20557;-62
2023/11/16 05:19:52;;;;;;;11.97;6.30;;;7.50;1.00;;;;;;5138728;27;20509;-63
2023/11/16 05:22:21;;;;;;;12.77;5.77;;;7.50;1.00;;;;;;5138723;27;20482;-62
2023/11/16 05:24:49;;;;;;;12.00;5.43;;;7.50;1.00;;;;;;5137712;27;20481;-63
2023/11/16 05:27:18;;;;;;;17.10;6.07;;;7.50;1.00;;;;;;5138720;27;20459;-62
2023/11/16 05:29:46;;;;;;;10.93;5.23;;;7.50;1.00;;;;;;5138177;27;20822;-63
2023/11/16 05:32:15;;;;;;;10.07;5.77;;;7.50;1.00;;;;;;5138980;27;20587;-62
2023/11/16 05:34:42;;;;;;;7.83;4.80;;;7.50;1.00;;;;;;5138753;27;20508;-62
2023/11/16 05:37:10;;;;;;;13.57;5.00;;;7.40;1.00;;;;;;5138669;27;20486;-62
2023/11/16 05:39:38;;;;;;;17.17;6.10;;;7.50;1.00;;;;;;5138128;27;20509;-62
2023/11/16 05:42:06;;;;;;;12.67;4.90;;;7.50;1.00;;;;;;5138677;27;20538;-62
2023/11/16 05:44:33;;;;;;;12.13;5.63;;;7.50;1.00;;;;;;5138669;27;20459;-62
2023/11/16 05:47:01;;;;;;;13.83;5.40;;;7.50;1.00;;;;;;5138601;27;20454;-62
2023/11/16 05:49:29;;;;;;;12.17;5.50;;;7.50;1.00;;;;;;5138130;27;20458;-62
2023/11/16 05:51:57;;;;;;;10.43;6.17;;;7.50;1.00;;;;;;5138325;27;20950;-59
2023/11/16 05:54:24;;;;;;;13.27;5.93;;;7.50;1.00;;;;;;5138155;27;20458;-58
2023/11/16 05:56:52;;;;;;;13.17;6.50;;;7.50;1.00;;;;;;5138051;28;20487;-58
2023/11/16 05:59:19;;;;;;;11.50;5.87;;;7.50;1.00;;;;;;5138368;28;20501;-58
2023/11/16 06:01:47;;;;;;;11.80;5.10;;;7.50;1.00;;;;;;5138402;28;20457;-58
2023/11/16 06:04:14;;;;;;;9.63;6.07;;;7.50;1.00;;;;;;5138475;28;20833;-58
2023/11/16 06:06:43;;;;;;;13.80;6.07;;;7.40;1.00;;;;;;5138239;27;20549;-59
2023/11/16 06:09:10;;;;;;;13.50;6.87;;;7.40;26.60;;;;;;5141006;27;20454;-59
2023/11/16 06:11:38;;;;;;;18.03;7.23;;;7.40;99.90;;;;;;5142130;27;20597;-59
2023/11/16 06:14:08;;;;;;;14.50;6.27;;;7.40;99.90;;;;;;5142228;27;20749;-59
2023/11/16 06:16:38;;;;;;;13.13;5.83;;;7.40;99.90;;;;;;5142145;27;20458;-59
2023/11/16 06:19:05;;;;;;;13.80;6.47;;;7.40;99.90;;;;;;5141930;27;20462;-59
2023/11/16 06:21:33;;;;;;;11.37;6.10;;;7.40;99.90;;;;;;5142251;27;20523;-59
2023/11/16 06:24:02;;;;;;;14.23;5.30;;;7.40;99.90;;;;;;5141387;27;20458;-59
2023/11/16 06:26:31;;;;;;;19.00;6.63;;;7.40;99.90;;;;;;5141001;27;20494;-60
2023/11/16 06:28:58;;;;;;;12.30;5.67;;;7.40;99.90;;;;;;5140654;27;20461;-59
2023/11/16 06:31:26;;;;;;;12.87;5.30;;;7.40;99.90;;;;;;5141092;27;20535;-59
2023/11/16 06:33:54;;;;;;;12.80;5.80;;;7.40;99.90;;;;;;5140695;27;20458;-59
2023/11/16 06:36:23;;;;;;;17.37;5.20;;;7.40;99.90;;;;;;5140778;27;20458;-59
2023/11/16 06:38:51;;;;;;;13.27;5.60;;;7.40;99.90;;;;;;5141310;27;20566;-59
2023/11/16 06:41:20;;;;;;;12.80;4.50;;;7.40;46.00;;;;;;5141736;27;20458;-62
2023/11/16 06:43:47;;;;;;;17.70;6.00;;;7.40;1.00;;;;;;5141853;27;20465;-62
2023/11/16 06:46:15;;;;;;;11.37;5.43;;;7.50;1.00;;;;;;5141732;27;20511;-62
2023/11/16 06:48:43;;;;;;;9.30;4.70;;;7.40;1.00;;;;;;5142001;27;20887;-63
2023/11/16 06:51:10;;;;;;;13.73;5.57;;;7.40;1.00;;;;;;5141615;27;20581;-63
2023/11/16 06:53:37;;;;;;;13.37;5.40;;;7.40;1.00;;;;;;5141503;27;20955;-63
2023/11/16 06:56:05;;;;;;;9.90;5.33;;;7.40;1.00;;;;;;5141292;27;20503;-64
2023/11/16 06:58:35;;;;;;;10.83;5.40;;;7.40;1.00;;;;;;5141438;27;20545;-63
2023/11/16 07:01:03;;;;;;;11.10;6.10;;;7.40;1.00;;;;;;5140940;27;20461;-63
2023/11/16 07:03:31;;;;;;;11.90;6.10;;;7.40;1.00;;;;;;5140190;27;20455;-63
2023/11/16 07:05:59;;;;;;;7.73;5.27;;;7.30;1.00;;;;;;5141065;27;20465;-63
2023/11/16 07:08:26;;;;;;;19.63;12.73;;;7.40;1.00;;;;;;5140339;27;20454;-63
2023/11/16 07:10:54;;;;;;;10.37;7.30;;;7.40;1.00;;;;;;5138879;27;20490;-63
2023/11/16 07:13:23;;;;;;;11.00;7.10;;;7.40;1.00;;;;;;5139313;27;20776;-63
2023/11/16 07:15:52;;;;;;;16.87;6.83;;;7.40;1.00;;;;;;5138818;27;20490;-64
2023/11/16 07:18:19;;;;;;;16.00;8.20;;;7.40;1.00;;;;;;5137869;27;20778;-64
2023/11/16 07:20:47;;;;;;;13.23;6.33;;;7.40;1.00;;;;;;5138659;27;20451;-64
2023/11/16 07:23:14;;;;;;;9.70;6.27;;;7.40;1.00;;;;;;5138716;27;20491;-63
2023/11/16 07:25:43;;;;;;;11.30;6.07;;;7.40;1.00;;;;;;5140191;27;20458;-63
2023/11/16 07:28:10;;;;;;;11.97;6.93;;;7.50;1.00;;;;;;5139170;27;20458;-64
2023/11/16 07:30:38;;;;;;;10.87;6.40;;;7.50;1.00;;;;;;5139210;27;20454;-63
2023/11/16 07:33:07;;;;;;;7.33;5.50;;;7.50;1.00;;;;;;5138460;27;20786;-64
2023/11/16 07:35:35;;;;;;;10.70;6.13;;;7.60;1.00;;;;;;5138848;27;20486;-63
2023/11/16 07:38:03;;;;;;;10.60;5.43;;;7.60;1.00;;;;;;5139104;27;20477;-63
2023/11/16 07:40:31;;;;;;;15.13;6.33;;;7.60;1.00;;;;;;5139950;27;20794;-63
2023/11/16 07:42:58;;;;;;;9.43;6.33;;;7.60;1.00;;;;;;5139823;27;20459;-63
2023/11/16 07:45:27;;;;;;;10.87;5.13;;;7.60;1.00;;;;;;5139627;27;20455;-63
2023/11/16 07:47:59;;;;;;;12.83;6.30;;;7.60;1.00;;;;;;5139880;27;20458;-63
2023/11/16 07:50:31;;;;;;;13.23;5.70;;;7.50;1.00;;;;;;5140038;27;20459;-63
2023/11/16 07:52:59;;;;;;;10.70;6.03;;;7.50;1.00;;;;;;5139791;27;20543;-63
2023/11/16 07:55:28;;;;;;;10.87;5.97;;;7.60;1.00;;;;;;5140270;27;20459;-64
2023/11/16 07:57:56;;;;;;;19.90;8.70;;;7.50;1.00;;;;;;5139941;27;20884;-63
2023/11/16 08:00:30;;;;;;;12.40;6.47;;;7.50;1.00;;;;;;5140085;27;20465;-63
2023/11/16 08:05:45;;;;;;;11.03;6.77;;;7.60;1.00;;;;;;5139682;27;20411;-63
2023/11/16 08:08:14;;;;;;;14.10;7.20;;;7.60;1.00;;;;;;5139561;27;20490;-64
2023/11/16 08:10:42;;;;;;;14.27;7.20;;;7.60;1.00;;;;;;5139976;27;20507;-63
2023/11/16 08:13:10;;;;;;;11.33;7.00;;;7.60;1.00;;;;;;5140023;27;20523;-64
2023/11/16 08:15:40;;;;;;;11.37;6.47;;;7.60;32.70;;;;;;5139576;27;20492;-64
2023/11/16 08:18:08;;;;;;;13.93;7.10;;;7.60;90.10;;;;;;5139950;27;20509;-63
2023/11/16 08:20:36;;;;;;;15.93;7.50;;;7.60;99.90;;;;;;5140151;27;20507;-63
2023/11/16 08:23:05;;;;;;;17.03;8.60;;;7.60;99.90;;;;;;5138689;27;20872;-64
2023/11/16 08:25:33;;;;;;;13.83;8.43;;;7.60;99.90;;;;;;5138283;27;20455;-63
2023/11/16 08:28:01;;;;;;;15.37;8.53;;;7.60;98.00;;;;;;5139407;27;20486;-64
2023/11/16 08:30:28;;;;;;;14.70;6.80;;;7.60;96.60;;;;;;5138883;27;20482;-63
2023/11/16 08:33:00;;;;;;;13.60;7.17;;;7.60;66.30;;;;;;5139007;27;20522;-63
2023/11/16 08:35:28;;;;;;;12.93;7.73;;;7.60;29.70;;;;;;5139456;27;20455;-64
2023/11/16 08:37:56;;;;;;;16.57;8.40;;;7.60;6.90;;;;;;5138314;27;20458;-63
2023/11/16 08:40:24;;;;;;;12.60;6.10;;;7.60;1.00;;;;;;5139174;27;20454;-64
2023/11/16 08:42:56;;;;;;;13.90;6.87;;;7.60;1.00;;;;;;5139087;27;20874;-63
2023/11/16 08:45:25;;;;;;;14.10;6.50;;;7.60;1.00;;;;;;5139216;27;20528;-63
2023/11/16 08:47:57;;;;;;;15.30;6.10;;;7.70;1.00;;;;;;5139055;27;20459;-63
2023/11/16 08:50:24;;;;;;;14.03;6.23;;;7.70;1.00;;;;;;5139071;27;20458;-64
2023/11/16 08:52:52;;;;;;;14.57;6.03;;;7.70;1.00;;;;;;5138314;27;20934;-64
2023/11/16 08:55:22;;;;;;;16.40;6.30;;;7.70;1.00;;;;;;5137292;27;20486;-64
2023/11/16 08:57:52;;;;;;;11.50;6.33;;;7.70;1.00;;;;;;5137246;27;20459;-64
2023/11/16 09:00:27;;;;;;;9.33;5.70;;;7.80;1.00;;;;;;5137206;27;20486;-64
2023/11/16 09:02:55;;;;;;;12.03;6.63;;;7.80;1.00;;;;;;5136684;27;20780;-64
2023/11/16 09:05:24;;;;;;;13.17;5.90;;;7.80;1.00;;;;;;5136178;27;20451;-63
2023/11/16 09:07:52;;;;;;;11.70;5.30;;;7.90;1.00;;;;;;5137093;27;20855;-63
2023/11/16 09:10:21;;;;;;;13.20;6.03;;;8.00;1.00;;;;;;5136601;27;20459;-64
2023/11/16 09:12:53;;;;;;;14.30;6.70;;;8.10;1.00;;;;;;5138095;27;20536;-63
2023/11/16 09:15:22;;;;;;;12.13;6.60;;;8.10;1.00;;;;;;5138739;27;20864;-63
2023/11/16 09:17:49;;;;;;;13.77;7.40;;;8.20;1.00;;;;;;5136964;27;20462;-63
2023/11/16 09:20:19;;;;;;;16.70;5.37;;;8.20;1.00;;;;;;5137068;27;20497;-63
2023/11/16 09:22:48;;;;;;;14.43;5.93;;;8.30;1.00;;;;;;5137125;27;20486;-63
2023/11/16 09:25:19;;;;;;;8.00;5.00;;;8.20;99.90;;;;;;5136839;27;20728;-64
2023/11/16 09:27:50;;;;;;;15.47;5.77;;;8.30;99.90;;;;;;5137106;27;20455;-63
2023/11/16 09:30:22;;;;;;;9.20;4.97;;;8.30;99.90;;;;;;5136224;27;20489;-63
2023/11/16 09:32:50;;;;;;;10.60;5.80;;;8.30;99.90;;;;;;5136635;27;20918;-63
2023/11/16 09:35:21;;;;;;;11.33;5.20;;;8.30;99.90;;;;;;5137517;27;20868;-63
2023/11/16 09:37:49;;;;;;;8.67;5.43;;;8.30;99.90;;;;;;5138286;27;20465;-63
2023/11/16 09:40:21;;;;;;;11.37;5.53;;;8.40;99.90;;;;;;5137148;27;20553;-63
2023/11/16 09:42:56;;;;;;;9.97;5.23;;;8.50;99.90;;;;;;5137494;27;20537;-64
2023/11/16 09:45:28;;;;;;;10.00;5.90;;;8.50;99.90;;;;;;5138087;27;20473;-62
2023/11/16 09:48:00;;;;;;;12.83;5.70;;;8.60;99.90;;;;;;5138553;27;20740;-63
2023/11/16 09:50:28;;;;;;;10.43;5.40;;;8.70;99.90;;;;;;5138287;27;20533;-64
2023/11/16 09:52:57;;;;;;;10.57;6.10;;;8.70;99.90;;;;;;5137476;27;20572;-64
2023/11/16 09:55:26;;;;;;;10.87;5.50;;;8.70;99.90;;;;;;5135867;27;20470;-64
2023/11/16 09:57:58;;;;;;;11.27;5.87;;;8.80;99.90;;;;;;5136393;27;20459;-64
2023/11/16 10:00:32;;;;;;;9.33;5.43;;;8.80;99.90;;;;;;5136192;28;20458;-64
2023/11/16 10:03:00;;;;;;;9.93;5.33;;;8.90;99.90;;;;;;5136423;28;20477;-64
2023/11/16 10:05:34;;;;;;;11.73;7.23;;;8.80;99.90;;;;;;5136168;28;20541;-64
2023/11/16 10:08:08;;;;;;;16.60;6.30;;;8.80;99.90;;;;;;5136838;28;20732;-64
2023/11/16 10:10:36;;;;;;;14.23;5.27;;;8.90;99.90;;;;;;5136457;27;20527;-64
2023/11/16 10:13:06;;;;;;;9.10;6.20;;;8.80;99.90;;;;;;5136618;28;20490;-64
2023/11/16 10:15:35;;;;;;;19.37;6.03;;;8.90;99.90;;;;;;5138006;28;20555;-64
2023/11/16 10:18:09;;;;;;;11.73;6.03;;;8.90;99.90;;;;;;5137935;28;20531;-64
2023/11/16 10:20:40;;;;;;;13.23;5.73;;;8.90;99.90;;;;;;5137504;28;20458;-65
2023/11/16 10:23:09;;;;;;;12.20;5.40;;;8.90;99.90;;;;;;5137109;27;20458;-65
2023/11/16 10:25:37;;;;;;;12.00;5.40;;;8.90;83.80;;;;;;5137149;28;20481;-65
2023/11/16 10:28:15;;;;;;;9.80;5.90;;;8.90;13.60;;;;;;5137332;28;20458;-65
2023/11/16 10:30:46;;;;;;;13.30;5.70;;;8.90;1.00;;;;;;5137714;28;20740;-64
2023/11/16 10:33:16;;;;;;;10.43;5.40;;;8.90;1.00;;;;;;5137558;28;20627;-65
2023/11/16 10:35:49;;;;;;;16.93;5.60;;;8.90;1.00;;;;;;5137817;28;20543;-65
2023/11/16 10:38:18;;;;;;;18.13;10.47;;;8.90;1.00;;;;;;5137470;27;20510;-65
2023/11/16 10:40:48;;;;;;;12.70;6.87;;;8.90;1.00;;;;;;5137044;28;20458;-65
2023/11/16 10:43:19;;;;;;;13.33;8.20;;;8.80;1.00;;;;;;5137486;28;20454;-65
2023/11/16 10:45:48;;;;;;;15.17;6.77;;;8.90;1.00;;;;;;5136957;28;20455;-65
2023/11/16 10:48:19;;;;;;;10.10;6.10;;;8.80;1.00;;;;;;5122036;28;20502;-65
2023/11/16 10:50:46;;;;;;;11.20;5.50;;;8.80;1.00;;;;;;5136025;28;20462;-65
2023/11/16 10:53:18;;;;;;;16.03;6.10;;;8.70;1.00;;;;;;5136335;27;20597;-65
2023/11/16 10:55:46;;;;;;;12.80;6.17;;;8.70;1.00;;;;;;5141508;27;20435;-65
2023/11/16 10:58:15;;;;;;;9.70;5.23;;;8.70;1.00;;;;;;5141714;27;20454;-65
2023/11/16 11:00:43;;;;;;;10.17;6.73;;;8.70;1.00;;;;;;5141171;27;20454;-65
2023/11/16 11:03:13;;;;;;;15.77;6.33;;;8.70;1.00;;;;;;5140622;27;20455;-64
2023/11/16 11:05:48;;;;;;;10.27;5.80;;;8.70;29.70;;;;;;5141219;27;20557;-65
2023/11/16 11:08:19;;;;;;;15.97;7.47;;;8.80;22.60;;;;;;5141266;27;20505;-65
2023/11/16 11:10:47;;;;;;;12.07;7.93;;;8.70;43.90;;;;;;5140903;27;20461;-64
2023/11/16 11:13:16;;;;;;;14.40;6.87;;;8.70;41.70;;;;;;5141357;27;20468;-65
2023/11/16 11:15:48;;;;;;;10.67;6.10;;;8.70;79.80;;;;;;5141076;27;20488;-66
2023/11/16 11:18:26;;;;;;;11.27;6.63;;;8.70;34.70;;;;;;5140915;27;20458;-64
2023/11/16 11:20:54;;;;;;;11.77;5.90;;;8.60;40.10;;;;;;5140986;27;20835;-66
2023/11/16 11:23:21;;;;;;;9.07;6.07;;;8.60;22.40;;;;;;5140931;27;20457;-65
2023/11/16 11:25:49;;;;;;;6.90;5.70;;;8.60;1.00;;;;;;5139840;27;20459;-65
2023/11/16 11:28:17;;;;;;;13.30;7.17;;;8.60;1.00;;;;;;5139770;27;20451;-65
2023/11/16 11:30:54;;;;;;;10.13;5.90;;;8.70;31.70;;;;;;5137149;27;20975;-65
2023/11/16 11:33:33;;;;;;;12.70;7.10;;;8.70;20.70;;;;;;5130488;27;20509;-65
2023/11/16 11:36:02;;;;;;;12.80;6.93;;;8.70;57.70;;;;;;5137762;27;20454;-65
2023/11/16 11:38:30;;;;;;;9.93;6.23;;;8.70;75.90;;;;;;5137878;27;20573;-62
2023/11/16 11:40:58;;;;;;;10.37;6.00;;;8.80;50.20;;;;;;5138426;27;20871;-63
2023/11/16 11:43:26;;;;;;;13.53;5.10;;;9.00;28.30;;;;;;5137449;27;20728;-63
2023/11/16 11:45:56;;;;;;;9.77;5.30;;;9.10;17.70;;;;;;5137633;27;20459;-63
2023/11/16 11:48:26;;;;;;;11.40;5.57;;;9.30;8.30;;;;;;5137449;27;20451;-63
2023/11/16 11:50:57;;;;;;;11.17;5.60;;;9.40;1.00;;;;;;5137892;27;20787;-63
2023/11/16 11:53:29;;;;;;;7.57;5.70;;;9.60;1.00;;;;;;5137125;27;20580;-63
2023/11/16 11:55:57;;;;;;;10.50;5.00;;;9.60;1.00;;;;;;5138400;27;20458;-63
2023/11/16 11:58:25;;;;;;;9.60;5.97;;;9.70;1.00;;;;;;5138758;27;20455;-63
2023/11/16 12:00:55;;;;;;;12.60;6.20;;;9.80;99.90;;;;;;5137666;27;20458;-64
2023/11/16 12:03:22;;;;;;;8.33;4.97;;;9.80;99.90;;;;;;5138189;27;20509;-63
2023/11/16 12:05:58;;;;;;;14.20;5.33;;;10.00;99.90;;;;;;5138344;27;20561;-63
2023/11/16 12:08:37;;;;;;;10.73;6.03;;;10.00;99.90;;;;;;5138403;27;20498;-63
2023/11/16 12:11:06;;;;;;;9.40;5.60;;;10.00;99.90;;;;;;5138314;27;20500;-64
2023/11/16 12:13:34;;;;;;;10.77;6.23;;;9.90;91.70;;;;;;5138033;27;20736;-63
2023/11/16 12:16:02;;;;;;;8.53;5.70;;;9.90;90.80;;;;;;5138879;27;20465;-64
2023/11/16 12:18:33;;;;;;;9.90;5.20;;;9.90;61.30;;;;;;5139742;27;20455;-64
2023/11/16 12:21:02;;;;;;;10.00;5.80;;;9.80;19.00;;;;;;5139591;27;20868;-64
2023/11/16 12:23:31;;;;;;;10.63;5.27;;;9.80;99.90;;;;;;5139573;27;20482;-64
2023/11/16 12:26:02;;;;;;;14.57;5.73;;;9.80;99.90;;;;;;5139846;27;20550;-63
2023/11/16 12:28:33;;;;;;;8.03;5.30;;;9.70;41.10;;;;;;5139790;27;20883;-63
2023/11/16 12:31:01;;;;;;;11.00;5.73;;;9.70;86.60;;;;;;5138033;27;20474;-66
2023/11/16 12:33:30;;;;;;;12.93;6.20;;;9.60;58.70;;;;;;5138208;27;20950;-66
2023/11/16 12:35:58;;;;;;;9.03;5.80;;;9.40;99.90;;;;;;5127659;27;20478;-66
2023/11/16 12:38:27;;;;;;;14.03;5.80;;;9.20;99.90;;;;;;5137966;27;20577;-66
2023/11/16 12:40:54;;;;;;;11.50;5.10;;;9.10;99.90;;;;;;5138548;27;20724;-67
2023/11/16 12:43:21;;;;;;;10.13;5.33;;;8.90;99.90;;;;;;5138880;27;20451;-67
2023/11/16 12:45:49;;;;;;;8.77;4.53;;;8.80;99.90;;;;;;5139394;27;20533;-66
2023/11/16 12:48:16;;;;;;;10.03;4.10;;;8.80;1.00;;;;;;5139442;27;20503;-66
2023/11/16 12:50:46;;;;;;;9.63;5.33;;;8.70;1.00;;;;;;5139105;27;20458;-66
2023/11/16 12:53:14;;;;;;;9.30;5.10;;;8.60;1.00;;;;;;5138673;27;20937;-66
2023/11/16 12:55:44;;;;;;;12.13;5.07;;;8.60;1.00;;;;;;5138377;27;20458;-66
2023/11/16 12:58:12;;;;;;;12.57;6.00;;;8.50;1.00;;;;;;5136427;27;20875;-66
2023/11/16 13:00:42;;;;;;;10.30;6.87;;;8.60;1.00;;;;;;5137173;27;20561;-66
2023/11/16 13:03:09;;;;;;;13.80;6.53;;;8.50;1.00;;;;;;5136849;27;20813;-67